<?xml version="1.0" encoding="UTF-8" standalone="no" ?>
<gpx xmlns="http://www.topografix.com/GPX/1/1" xmlns:xsi="http://www.w3.org/2001/XMLSchema-instance" xsi:schemaLocation="http://www.topografix.com/GPX/1/1 http://www.topografix.com/GPX/1/1/gpx.xsd" version="1.1" creator="VisuGPX - https://www.visugpx.com">
  <metadata>
    <name>ETB 14k-22620082</name>
  </metadata>
  <trk>
    <name><![CDATA[ETB 14k-22620082]]></name>
    <trkseg>
      <trkpt lat="45.97636" lon="3.52157">
        <ele>321</ele>
        <time>2025-10-05T14:23:22Z</time>
      </trkpt>
      <trkpt lat="45.97638" lon="3.52166">
        <ele>320</ele>
        <time>2025-10-05T14:23:25Z</time>
      </trkpt>
      <trkpt lat="45.97641" lon="3.5218">
        <ele>319</ele>
        <time>2025-10-05T14:23:30Z</time>
      </trkpt>
      <trkpt lat="45.97642" lon="3.52198">
        <ele>319</ele>
        <time>2025-10-05T14:23:37Z</time>
      </trkpt>
      <trkpt lat="45.97646" lon="3.52197">
        <ele>319</ele>
        <time>2025-10-05T14:23:39Z</time>
      </trkpt>
      <trkpt lat="45.97657" lon="3.522">
        <ele>317</ele>
        <time>2025-10-05T14:23:44Z</time>
      </trkpt>
      <trkpt lat="45.97659" lon="3.52203">
        <ele>317</ele>
        <time>2025-10-05T14:23:46Z</time>
      </trkpt>
      <trkpt lat="45.97662" lon="3.52198">
        <ele>316</ele>
        <time>2025-10-05T14:23:48Z</time>
      </trkpt>
      <trkpt lat="45.97662" lon="3.52198">
        <ele>316</ele>
        <time>2025-10-05T14:23:48Z</time>
      </trkpt>
      <trkpt lat="45.97669" lon="3.52177">
        <ele>315</ele>
        <time>2025-10-05T14:23:56Z</time>
      </trkpt>
      <trkpt lat="45.97676" lon="3.52162">
        <ele>316</ele>
        <time>2025-10-05T14:24:02Z</time>
      </trkpt>
      <trkpt lat="45.9768" lon="3.52156">
        <ele>316</ele>
        <time>2025-10-05T14:24:05Z</time>
      </trkpt>
      <trkpt lat="45.97686" lon="3.52148">
        <ele>316</ele>
        <time>2025-10-05T14:24:09Z</time>
      </trkpt>
      <trkpt lat="45.97713" lon="3.52122">
        <ele>316</ele>
        <time>2025-10-05T14:24:26Z</time>
      </trkpt>
      <trkpt lat="45.97727" lon="3.52104">
        <ele>314</ele>
        <time>2025-10-05T14:24:35Z</time>
      </trkpt>
      <trkpt lat="45.97725" lon="3.52101">
        <ele>314</ele>
        <time>2025-10-05T14:24:37Z</time>
      </trkpt>
      <trkpt lat="45.97722" lon="3.52097">
        <ele>314</ele>
        <time>2025-10-05T14:24:39Z</time>
      </trkpt>
      <trkpt lat="45.97718" lon="3.5209">
        <ele>314</ele>
        <time>2025-10-05T14:24:42Z</time>
      </trkpt>
      <trkpt lat="45.97729" lon="3.52076">
        <ele>313</ele>
        <time>2025-10-05T14:24:49Z</time>
      </trkpt>
      <trkpt lat="45.97749" lon="3.52052">
        <ele>312</ele>
        <time>2025-10-05T14:25:02Z</time>
      </trkpt>
      <trkpt lat="45.97754" lon="3.52015">
        <ele>313</ele>
        <time>2025-10-05T14:25:15Z</time>
      </trkpt>
      <trkpt lat="45.97755" lon="3.52013">
        <ele>313</ele>
        <time>2025-10-05T14:25:16Z</time>
      </trkpt>
      <trkpt lat="45.97751" lon="3.5201">
        <ele>313</ele>
        <time>2025-10-05T14:25:18Z</time>
      </trkpt>
      <trkpt lat="45.97725" lon="3.52008">
        <ele>314</ele>
        <time>2025-10-05T14:25:31Z</time>
      </trkpt>
      <trkpt lat="45.97714" lon="3.52008">
        <ele>314</ele>
        <time>2025-10-05T14:25:37Z</time>
      </trkpt>
      <trkpt lat="45.97702" lon="3.52005">
        <ele>314</ele>
        <time>2025-10-05T14:25:43Z</time>
      </trkpt>
      <trkpt lat="45.97693" lon="3.52001">
        <ele>314</ele>
        <time>2025-10-05T14:25:48Z</time>
      </trkpt>
      <trkpt lat="45.97687" lon="3.51996">
        <ele>315</ele>
        <time>2025-10-05T14:25:51Z</time>
      </trkpt>
      <trkpt lat="45.9768" lon="3.52006">
        <ele>315</ele>
        <time>2025-10-05T14:25:56Z</time>
      </trkpt>
      <trkpt lat="45.97677" lon="3.52014">
        <ele>315</ele>
        <time>2025-10-05T14:25:59Z</time>
      </trkpt>
      <trkpt lat="45.97671" lon="3.52012">
        <ele>315</ele>
        <time>2025-10-05T14:26:02Z</time>
      </trkpt>
      <trkpt lat="45.97667" lon="3.52015">
        <ele>315</ele>
        <time>2025-10-05T14:26:05Z</time>
      </trkpt>
      <trkpt lat="45.97664" lon="3.5202">
        <ele>315</ele>
        <time>2025-10-05T14:26:07Z</time>
      </trkpt>
      <trkpt lat="45.97663" lon="3.52022">
        <ele>315</ele>
        <time>2025-10-05T14:26:08Z</time>
      </trkpt>
      <trkpt lat="45.97658" lon="3.52025">
        <ele>316</ele>
        <time>2025-10-05T14:26:10Z</time>
      </trkpt>
      <trkpt lat="45.97653" lon="3.52032">
        <ele>317</ele>
        <time>2025-10-05T14:26:14Z</time>
      </trkpt>
      <trkpt lat="45.97641" lon="3.52048">
        <ele>319</ele>
        <time>2025-10-05T14:26:22Z</time>
      </trkpt>
      <trkpt lat="45.97629" lon="3.52069">
        <ele>322</ele>
        <time>2025-10-05T14:26:32Z</time>
      </trkpt>
      <trkpt lat="45.9762" lon="3.52094">
        <ele>324</ele>
        <time>2025-10-05T14:26:41Z</time>
      </trkpt>
      <trkpt lat="45.9761" lon="3.52084">
        <ele>326</ele>
        <time>2025-10-05T14:26:47Z</time>
      </trkpt>
      <trkpt lat="45.97608" lon="3.52082">
        <ele>326</ele>
        <time>2025-10-05T14:26:49Z</time>
      </trkpt>
      <trkpt lat="45.97605" lon="3.52079">
        <ele>326</ele>
        <time>2025-10-05T14:26:50Z</time>
      </trkpt>
      <trkpt lat="45.97604" lon="3.52076">
        <ele>326</ele>
        <time>2025-10-05T14:26:52Z</time>
      </trkpt>
      <trkpt lat="45.97605" lon="3.5207">
        <ele>326</ele>
        <time>2025-10-05T14:26:54Z</time>
      </trkpt>
      <trkpt lat="45.97607" lon="3.52063">
        <ele>325</ele>
        <time>2025-10-05T14:26:56Z</time>
      </trkpt>
      <trkpt lat="45.97621" lon="3.52036">
        <ele>321</ele>
        <time>2025-10-05T14:27:08Z</time>
      </trkpt>
      <trkpt lat="45.97625" lon="3.52033">
        <ele>320</ele>
        <time>2025-10-05T14:27:10Z</time>
      </trkpt>
      <trkpt lat="45.97616" lon="3.52024">
        <ele>321</ele>
        <time>2025-10-05T14:27:16Z</time>
      </trkpt>
      <trkpt lat="45.9761" lon="3.52018">
        <ele>321</ele>
        <time>2025-10-05T14:27:20Z</time>
      </trkpt>
      <trkpt lat="45.97606" lon="3.52">
        <ele>320</ele>
        <time>2025-10-05T14:27:26Z</time>
      </trkpt>
      <trkpt lat="45.97598" lon="3.51994">
        <ele>321</ele>
        <time>2025-10-05T14:27:31Z</time>
      </trkpt>
      <trkpt lat="45.97594" lon="3.51979">
        <ele>321</ele>
        <time>2025-10-05T14:27:36Z</time>
      </trkpt>
      <trkpt lat="45.97587" lon="3.51981">
        <ele>322</ele>
        <time>2025-10-05T14:27:40Z</time>
      </trkpt>
      <trkpt lat="45.97585" lon="3.51981">
        <ele>322</ele>
        <time>2025-10-05T14:27:41Z</time>
      </trkpt>
      <trkpt lat="45.97583" lon="3.51979">
        <ele>322</ele>
        <time>2025-10-05T14:27:42Z</time>
      </trkpt>
      <trkpt lat="45.97583" lon="3.51955">
        <ele>322</ele>
        <time>2025-10-05T14:27:50Z</time>
      </trkpt>
      <trkpt lat="45.97582" lon="3.51943">
        <ele>322</ele>
        <time>2025-10-05T14:27:55Z</time>
      </trkpt>
      <trkpt lat="45.97579" lon="3.51945">
        <ele>322</ele>
        <time>2025-10-05T14:27:56Z</time>
      </trkpt>
      <trkpt lat="45.97574" lon="3.51948">
        <ele>322</ele>
        <time>2025-10-05T14:27:59Z</time>
      </trkpt>
      <trkpt lat="45.97561" lon="3.51959">
        <ele>323</ele>
        <time>2025-10-05T14:28:06Z</time>
      </trkpt>
      <trkpt lat="45.97546" lon="3.51982">
        <ele>322</ele>
        <time>2025-10-05T14:28:17Z</time>
      </trkpt>
      <trkpt lat="45.97541" lon="3.51987">
        <ele>322</ele>
        <time>2025-10-05T14:28:20Z</time>
      </trkpt>
      <trkpt lat="45.97536" lon="3.5199">
        <ele>322</ele>
        <time>2025-10-05T14:28:23Z</time>
      </trkpt>
      <trkpt lat="45.97529" lon="3.51996">
        <ele>322</ele>
        <time>2025-10-05T14:28:27Z</time>
      </trkpt>
      <trkpt lat="45.97525" lon="3.52002">
        <ele>322</ele>
        <time>2025-10-05T14:28:30Z</time>
      </trkpt>
      <trkpt lat="45.97521" lon="3.5201">
        <ele>322</ele>
        <time>2025-10-05T14:28:34Z</time>
      </trkpt>
      <trkpt lat="45.97514" lon="3.52037">
        <ele>325</ele>
        <time>2025-10-05T14:28:44Z</time>
      </trkpt>
      <trkpt lat="45.97507" lon="3.52058">
        <ele>327</ele>
        <time>2025-10-05T14:28:52Z</time>
      </trkpt>
      <trkpt lat="45.97503" lon="3.52066">
        <ele>328</ele>
        <time>2025-10-05T14:28:55Z</time>
      </trkpt>
      <trkpt lat="45.975" lon="3.52072">
        <ele>329</ele>
        <time>2025-10-05T14:28:58Z</time>
      </trkpt>
      <trkpt lat="45.97489" lon="3.52082">
        <ele>329</ele>
        <time>2025-10-05T14:29:04Z</time>
      </trkpt>
      <trkpt lat="45.97477" lon="3.5209">
        <ele>330</ele>
        <time>2025-10-05T14:29:11Z</time>
      </trkpt>
      <trkpt lat="45.97438" lon="3.52111">
        <ele>332</ele>
        <time>2025-10-05T14:29:32Z</time>
      </trkpt>
      <trkpt lat="45.97437" lon="3.52111">
        <ele>332</ele>
        <time>2025-10-05T14:29:32Z</time>
      </trkpt>
      <trkpt lat="45.97501" lon="3.52163">
        <ele>344</ele>
        <time>2025-10-05T14:30:09Z</time>
      </trkpt>
      <trkpt lat="45.97503" lon="3.52183">
        <ele>346</ele>
        <time>2025-10-05T14:30:16Z</time>
      </trkpt>
      <trkpt lat="45.97462" lon="3.52264">
        <ele>358</ele>
        <time>2025-10-05T14:30:51Z</time>
      </trkpt>
      <trkpt lat="45.97436" lon="3.52296">
        <ele>364</ele>
        <time>2025-10-05T14:31:08Z</time>
      </trkpt>
      <trkpt lat="45.97431" lon="3.52314">
        <ele>366</ele>
        <time>2025-10-05T14:31:15Z</time>
      </trkpt>
      <trkpt lat="45.97409" lon="3.5233">
        <ele>371</ele>
        <time>2025-10-05T14:31:27Z</time>
      </trkpt>
      <trkpt lat="45.97396" lon="3.52337">
        <ele>373</ele>
        <time>2025-10-05T14:31:34Z</time>
      </trkpt>
      <trkpt lat="45.97388" lon="3.52341">
        <ele>375</ele>
        <time>2025-10-05T14:31:38Z</time>
      </trkpt>
      <trkpt lat="45.97385" lon="3.52351">
        <ele>376</ele>
        <time>2025-10-05T14:31:42Z</time>
      </trkpt>
      <trkpt lat="45.9738" lon="3.52366">
        <ele>379</ele>
        <time>2025-10-05T14:31:48Z</time>
      </trkpt>
      <trkpt lat="45.97372" lon="3.52411">
        <ele>387</ele>
        <time>2025-10-05T14:32:04Z</time>
      </trkpt>
      <trkpt lat="45.97343" lon="3.52462">
        <ele>396</ele>
        <time>2025-10-05T14:32:27Z</time>
      </trkpt>
      <trkpt lat="45.97315" lon="3.5249">
        <ele>401</ele>
        <time>2025-10-05T14:32:44Z</time>
      </trkpt>
      <trkpt lat="45.97288" lon="3.52512">
        <ele>405</ele>
        <time>2025-10-05T14:32:59Z</time>
      </trkpt>
      <trkpt lat="45.97261" lon="3.52543">
        <ele>414</ele>
        <time>2025-10-05T14:33:17Z</time>
      </trkpt>
      <trkpt lat="45.97242" lon="3.52576">
        <ele>421</ele>
        <time>2025-10-05T14:33:32Z</time>
      </trkpt>
      <trkpt lat="45.97229" lon="3.52655">
        <ele>430</ele>
        <time>2025-10-05T14:34:00Z</time>
      </trkpt>
      <trkpt lat="45.97208" lon="3.52746">
        <ele>440</ele>
        <time>2025-10-05T14:34:33Z</time>
      </trkpt>
      <trkpt lat="45.97207" lon="3.52782">
        <ele>445</ele>
        <time>2025-10-05T14:34:46Z</time>
      </trkpt>
      <trkpt lat="45.97208" lon="3.52819">
        <ele>451</ele>
        <time>2025-10-05T14:34:59Z</time>
      </trkpt>
      <trkpt lat="45.97217" lon="3.52869">
        <ele>457</ele>
        <time>2025-10-05T14:35:17Z</time>
      </trkpt>
      <trkpt lat="45.97217" lon="3.52882">
        <ele>459</ele>
        <time>2025-10-05T14:35:21Z</time>
      </trkpt>
      <trkpt lat="45.97214" lon="3.52896">
        <ele>461</ele>
        <time>2025-10-05T14:35:26Z</time>
      </trkpt>
      <trkpt lat="45.97206" lon="3.52952">
        <ele>468</ele>
        <time>2025-10-05T14:35:46Z</time>
      </trkpt>
      <trkpt lat="45.97232" lon="3.52961">
        <ele>470</ele>
        <time>2025-10-05T14:35:59Z</time>
      </trkpt>
      <trkpt lat="45.97245" lon="3.52968">
        <ele>472</ele>
        <time>2025-10-05T14:36:06Z</time>
      </trkpt>
      <trkpt lat="45.97254" lon="3.52969">
        <ele>473</ele>
        <time>2025-10-05T14:36:11Z</time>
      </trkpt>
      <trkpt lat="45.97271" lon="3.52969">
        <ele>473</ele>
        <time>2025-10-05T14:36:19Z</time>
      </trkpt>
      <trkpt lat="45.97281" lon="3.52968">
        <ele>474</ele>
        <time>2025-10-05T14:36:24Z</time>
      </trkpt>
      <trkpt lat="45.9729" lon="3.5297">
        <ele>474</ele>
        <time>2025-10-05T14:36:29Z</time>
      </trkpt>
      <trkpt lat="45.97295" lon="3.52977">
        <ele>476</ele>
        <time>2025-10-05T14:36:33Z</time>
      </trkpt>
      <trkpt lat="45.973" lon="3.52985">
        <ele>477</ele>
        <time>2025-10-05T14:36:36Z</time>
      </trkpt>
      <trkpt lat="45.97306" lon="3.52996">
        <ele>479</ele>
        <time>2025-10-05T14:36:41Z</time>
      </trkpt>
      <trkpt lat="45.97332" lon="3.53006">
        <ele>482</ele>
        <time>2025-10-05T14:36:55Z</time>
      </trkpt>
      <trkpt lat="45.97381" lon="3.53056">
        <ele>480</ele>
        <time>2025-10-05T14:37:25Z</time>
      </trkpt>
      <trkpt lat="45.974" lon="3.53077">
        <ele>480</ele>
        <time>2025-10-05T14:37:37Z</time>
      </trkpt>
      <trkpt lat="45.97412" lon="3.53108">
        <ele>482</ele>
        <time>2025-10-05T14:37:49Z</time>
      </trkpt>
      <trkpt lat="45.97415" lon="3.53147">
        <ele>486</ele>
        <time>2025-10-05T14:38:03Z</time>
      </trkpt>
      <trkpt lat="45.97428" lon="3.53159">
        <ele>487</ele>
        <time>2025-10-05T14:38:10Z</time>
      </trkpt>
      <trkpt lat="45.97462" lon="3.5316">
        <ele>486</ele>
        <time>2025-10-05T14:38:27Z</time>
      </trkpt>
      <trkpt lat="45.97514" lon="3.53155">
        <ele>484</ele>
        <time>2025-10-05T14:38:53Z</time>
      </trkpt>
      <trkpt lat="45.97541" lon="3.53156">
        <ele>483</ele>
        <time>2025-10-05T14:39:07Z</time>
      </trkpt>
      <trkpt lat="45.97554" lon="3.53157">
        <ele>483</ele>
        <time>2025-10-05T14:39:13Z</time>
      </trkpt>
      <trkpt lat="45.97614" lon="3.53127">
        <ele>474</ele>
        <time>2025-10-05T14:39:45Z</time>
      </trkpt>
      <trkpt lat="45.97649" lon="3.53156">
        <ele>471</ele>
        <time>2025-10-05T14:40:05Z</time>
      </trkpt>
      <trkpt lat="45.97652" lon="3.53163">
        <ele>471</ele>
        <time>2025-10-05T14:40:08Z</time>
      </trkpt>
      <trkpt lat="45.97653" lon="3.53169">
        <ele>471</ele>
        <time>2025-10-05T14:40:10Z</time>
      </trkpt>
      <trkpt lat="45.97651" lon="3.53178">
        <ele>472</ele>
        <time>2025-10-05T14:40:14Z</time>
      </trkpt>
      <trkpt lat="45.97646" lon="3.53188">
        <ele>473</ele>
        <time>2025-10-05T14:40:18Z</time>
      </trkpt>
      <trkpt lat="45.97645" lon="3.53194">
        <ele>474</ele>
        <time>2025-10-05T14:40:20Z</time>
      </trkpt>
      <trkpt lat="45.97646" lon="3.532">
        <ele>474</ele>
        <time>2025-10-05T14:40:22Z</time>
      </trkpt>
      <trkpt lat="45.9765" lon="3.53205">
        <ele>474</ele>
        <time>2025-10-05T14:40:25Z</time>
      </trkpt>
      <trkpt lat="45.97672" lon="3.5322">
        <ele>471</ele>
        <time>2025-10-05T14:40:37Z</time>
      </trkpt>
      <trkpt lat="45.97679" lon="3.53228">
        <ele>470</ele>
        <time>2025-10-05T14:40:42Z</time>
      </trkpt>
      <trkpt lat="45.97705" lon="3.5326">
        <ele>466</ele>
        <time>2025-10-05T14:40:59Z</time>
      </trkpt>
      <trkpt lat="45.97727" lon="3.53276">
        <ele>462</ele>
        <time>2025-10-05T14:41:11Z</time>
      </trkpt>
      <trkpt lat="45.9773" lon="3.5328">
        <ele>461</ele>
        <time>2025-10-05T14:41:13Z</time>
      </trkpt>
      <trkpt lat="45.97747" lon="3.53325">
        <ele>456</ele>
        <time>2025-10-05T14:41:31Z</time>
      </trkpt>
      <trkpt lat="45.97749" lon="3.53334">
        <ele>455</ele>
        <time>2025-10-05T14:41:34Z</time>
      </trkpt>
      <trkpt lat="45.97742" lon="3.53383">
        <ele>458</ele>
        <time>2025-10-05T14:41:52Z</time>
      </trkpt>
      <trkpt lat="45.97743" lon="3.53399">
        <ele>458</ele>
        <time>2025-10-05T14:41:57Z</time>
      </trkpt>
      <trkpt lat="45.97745" lon="3.53416">
        <ele>457</ele>
        <time>2025-10-05T14:42:03Z</time>
      </trkpt>
      <trkpt lat="45.97767" lon="3.53445">
        <ele>456</ele>
        <time>2025-10-05T14:42:18Z</time>
      </trkpt>
      <trkpt lat="45.97766" lon="3.53491">
        <ele>457</ele>
        <time>2025-10-05T14:42:34Z</time>
      </trkpt>
      <trkpt lat="45.97739" lon="3.53558">
        <ele>460</ele>
        <time>2025-10-05T14:43:01Z</time>
      </trkpt>
      <trkpt lat="45.97711" lon="3.53598">
        <ele>463</ele>
        <time>2025-10-05T14:43:21Z</time>
      </trkpt>
      <trkpt lat="45.9768" lon="3.53636">
        <ele>464</ele>
        <time>2025-10-05T14:43:41Z</time>
      </trkpt>
      <trkpt lat="45.9767" lon="3.53658">
        <ele>463</ele>
        <time>2025-10-05T14:43:50Z</time>
      </trkpt>
      <trkpt lat="45.97668" lon="3.53697">
        <ele>465</ele>
        <time>2025-10-05T14:44:04Z</time>
      </trkpt>
      <trkpt lat="45.97679" lon="3.53747">
        <ele>471</ele>
        <time>2025-10-05T14:44:22Z</time>
      </trkpt>
      <trkpt lat="45.9773" lon="3.53846">
        <ele>483</ele>
        <time>2025-10-05T14:45:05Z</time>
      </trkpt>
      <trkpt lat="45.97781" lon="3.53882">
        <ele>490</ele>
        <time>2025-10-05T14:45:34Z</time>
      </trkpt>
      <trkpt lat="45.9784" lon="3.53896">
        <ele>499</ele>
        <time>2025-10-05T14:46:03Z</time>
      </trkpt>
      <trkpt lat="45.9788" lon="3.53915">
        <ele>500</ele>
        <time>2025-10-05T14:46:25Z</time>
      </trkpt>
      <trkpt lat="45.97907" lon="3.53933">
        <ele>501</ele>
        <time>2025-10-05T14:46:39Z</time>
      </trkpt>
      <trkpt lat="45.97938" lon="3.5395">
        <ele>501</ele>
        <time>2025-10-05T14:46:56Z</time>
      </trkpt>
      <trkpt lat="45.97941" lon="3.53952">
        <ele>500</ele>
        <time>2025-10-05T14:46:58Z</time>
      </trkpt>
      <trkpt lat="45.97977" lon="3.54027">
        <ele>505</ele>
        <time>2025-10-05T14:47:29Z</time>
      </trkpt>
      <trkpt lat="45.98009" lon="3.54061">
        <ele>507</ele>
        <time>2025-10-05T14:47:49Z</time>
      </trkpt>
      <trkpt lat="45.98016" lon="3.54083">
        <ele>509</ele>
        <time>2025-10-05T14:47:58Z</time>
      </trkpt>
      <trkpt lat="45.98036" lon="3.5414">
        <ele>513</ele>
        <time>2025-10-05T14:48:20Z</time>
      </trkpt>
      <trkpt lat="45.9805" lon="3.54163">
        <ele>513</ele>
        <time>2025-10-05T14:48:31Z</time>
      </trkpt>
      <trkpt lat="45.98047" lon="3.54166">
        <ele>514</ele>
        <time>2025-10-05T14:48:32Z</time>
      </trkpt>
      <trkpt lat="45.9803" lon="3.54268">
        <ele>512</ele>
        <time>2025-10-05T14:49:09Z</time>
      </trkpt>
      <trkpt lat="45.97995" lon="3.54279">
        <ele>515</ele>
        <time>2025-10-05T14:49:27Z</time>
      </trkpt>
      <trkpt lat="45.9798" lon="3.54315">
        <ele>515</ele>
        <time>2025-10-05T14:49:41Z</time>
      </trkpt>
      <trkpt lat="45.97969" lon="3.5434">
        <ele>516</ele>
        <time>2025-10-05T14:49:52Z</time>
      </trkpt>
      <trkpt lat="45.97958" lon="3.54358">
        <ele>518</ele>
        <time>2025-10-05T14:50:00Z</time>
      </trkpt>
      <trkpt lat="45.9795" lon="3.54379">
        <ele>519</ele>
        <time>2025-10-05T14:50:08Z</time>
      </trkpt>
      <trkpt lat="45.97949" lon="3.54404">
        <ele>518</ele>
        <time>2025-10-05T14:50:17Z</time>
      </trkpt>
      <trkpt lat="45.97957" lon="3.54423">
        <ele>516</ele>
        <time>2025-10-05T14:50:25Z</time>
      </trkpt>
      <trkpt lat="45.97975" lon="3.54436">
        <ele>514</ele>
        <time>2025-10-05T14:50:35Z</time>
      </trkpt>
      <trkpt lat="45.97984" lon="3.5444">
        <ele>512</ele>
        <time>2025-10-05T14:50:40Z</time>
      </trkpt>
      <trkpt lat="45.98001" lon="3.54451">
        <ele>509</ele>
        <time>2025-10-05T14:50:49Z</time>
      </trkpt>
      <trkpt lat="45.98006" lon="3.54469">
        <ele>509</ele>
        <time>2025-10-05T14:50:56Z</time>
      </trkpt>
      <trkpt lat="45.98008" lon="3.54491">
        <ele>510</ele>
        <time>2025-10-05T14:51:03Z</time>
      </trkpt>
      <trkpt lat="45.98015" lon="3.54516">
        <ele>508</ele>
        <time>2025-10-05T14:51:13Z</time>
      </trkpt>
      <trkpt lat="45.98015" lon="3.54533">
        <ele>507</ele>
        <time>2025-10-05T14:51:19Z</time>
      </trkpt>
      <trkpt lat="45.97997" lon="3.54571">
        <ele>513</ele>
        <time>2025-10-05T14:51:35Z</time>
      </trkpt>
      <trkpt lat="45.97988" lon="3.54606">
        <ele>513</ele>
        <time>2025-10-05T14:51:48Z</time>
      </trkpt>
      <trkpt lat="45.97985" lon="3.54641">
        <ele>509</ele>
        <time>2025-10-05T14:52:00Z</time>
      </trkpt>
      <trkpt lat="45.97981" lon="3.5468">
        <ele>505</ele>
        <time>2025-10-05T14:52:14Z</time>
      </trkpt>
      <trkpt lat="45.97967" lon="3.54685">
        <ele>508</ele>
        <time>2025-10-05T14:52:21Z</time>
      </trkpt>
      <trkpt lat="45.97944" lon="3.54702">
        <ele>511</ele>
        <time>2025-10-05T14:52:34Z</time>
      </trkpt>
      <trkpt lat="45.97912" lon="3.54739">
        <ele>511</ele>
        <time>2025-10-05T14:52:54Z</time>
      </trkpt>
      <trkpt lat="45.97894" lon="3.54785">
        <ele>514</ele>
        <time>2025-10-05T14:53:13Z</time>
      </trkpt>
      <trkpt lat="45.97885" lon="3.54833">
        <ele>512</ele>
        <time>2025-10-05T14:53:30Z</time>
      </trkpt>
      <trkpt lat="45.97877" lon="3.54858">
        <ele>515</ele>
        <time>2025-10-05T14:53:39Z</time>
      </trkpt>
      <trkpt lat="45.97891" lon="3.54881">
        <ele>516</ele>
        <time>2025-10-05T14:53:50Z</time>
      </trkpt>
      <trkpt lat="45.97912" lon="3.54861">
        <ele>512</ele>
        <time>2025-10-05T14:54:03Z</time>
      </trkpt>
      <trkpt lat="45.97976" lon="3.55022">
        <ele>512</ele>
        <time>2025-10-05T14:55:07Z</time>
      </trkpt>
      <trkpt lat="45.97957" lon="3.55054">
        <ele>515</ele>
        <time>2025-10-05T14:55:22Z</time>
      </trkpt>
      <trkpt lat="45.97963" lon="3.55069">
        <ele>514</ele>
        <time>2025-10-05T14:55:28Z</time>
      </trkpt>
      <trkpt lat="45.98022" lon="3.55077">
        <ele>505</ele>
        <time>2025-10-05T14:55:57Z</time>
      </trkpt>
      <trkpt lat="45.98025" lon="3.55078">
        <ele>504</ele>
        <time>2025-10-05T14:55:59Z</time>
      </trkpt>
      <trkpt lat="45.98047" lon="3.5505">
        <ele>499</ele>
        <time>2025-10-05T14:56:14Z</time>
      </trkpt>
      <trkpt lat="45.98099" lon="3.55046">
        <ele>489</ele>
        <time>2025-10-05T14:56:40Z</time>
      </trkpt>
      <trkpt lat="45.98173" lon="3.55045">
        <ele>475</ele>
        <time>2025-10-05T14:57:17Z</time>
      </trkpt>
      <trkpt lat="45.98289" lon="3.55049">
        <ele>456</ele>
        <time>2025-10-05T14:58:15Z</time>
      </trkpt>
      <trkpt lat="45.983" lon="3.55054">
        <ele>454</ele>
        <time>2025-10-05T14:58:21Z</time>
      </trkpt>
      <trkpt lat="45.98288" lon="3.55072">
        <ele>456</ele>
        <time>2025-10-05T14:58:29Z</time>
      </trkpt>
      <trkpt lat="45.98256" lon="3.5509">
        <ele>462</ele>
        <time>2025-10-05T14:58:47Z</time>
      </trkpt>
      <trkpt lat="45.98215" lon="3.55106">
        <ele>467</ele>
        <time>2025-10-05T14:59:08Z</time>
      </trkpt>
      <trkpt lat="45.98181" lon="3.55112">
        <ele>472</ele>
        <time>2025-10-05T14:59:25Z</time>
      </trkpt>
      <trkpt lat="45.98174" lon="3.55121">
        <ele>474</ele>
        <time>2025-10-05T14:59:30Z</time>
      </trkpt>
      <trkpt lat="45.98189" lon="3.55127">
        <ele>470</ele>
        <time>2025-10-05T14:59:37Z</time>
      </trkpt>
      <trkpt lat="45.98195" lon="3.55137">
        <ele>468</ele>
        <time>2025-10-05T14:59:42Z</time>
      </trkpt>
      <trkpt lat="45.98212" lon="3.55141">
        <ele>464</ele>
        <time>2025-10-05T14:59:51Z</time>
      </trkpt>
      <trkpt lat="45.9824" lon="3.55141">
        <ele>457</ele>
        <time>2025-10-05T15:00:05Z</time>
      </trkpt>
      <trkpt lat="45.98255" lon="3.55149">
        <ele>453</ele>
        <time>2025-10-05T15:00:13Z</time>
      </trkpt>
      <trkpt lat="45.98272" lon="3.55151">
        <ele>449</ele>
        <time>2025-10-05T15:00:21Z</time>
      </trkpt>
      <trkpt lat="45.98286" lon="3.55159">
        <ele>445</ele>
        <time>2025-10-05T15:00:29Z</time>
      </trkpt>
      <trkpt lat="45.98288" lon="3.55159">
        <ele>445</ele>
        <time>2025-10-05T15:00:30Z</time>
      </trkpt>
      <trkpt lat="45.98317" lon="3.55159">
        <ele>439</ele>
        <time>2025-10-05T15:00:44Z</time>
      </trkpt>
      <trkpt lat="45.98358" lon="3.55147">
        <ele>435</ele>
        <time>2025-10-05T15:01:05Z</time>
      </trkpt>
      <trkpt lat="45.98378" lon="3.55134">
        <ele>433</ele>
        <time>2025-10-05T15:01:16Z</time>
      </trkpt>
      <trkpt lat="45.98401" lon="3.55112">
        <ele>430</ele>
        <time>2025-10-05T15:01:30Z</time>
      </trkpt>
      <trkpt lat="45.98406" lon="3.55105">
        <ele>429</ele>
        <time>2025-10-05T15:01:33Z</time>
      </trkpt>
      <trkpt lat="45.98419" lon="3.55097">
        <ele>428</ele>
        <time>2025-10-05T15:01:41Z</time>
      </trkpt>
      <trkpt lat="45.98419" lon="3.55095">
        <ele>428</ele>
        <time>2025-10-05T15:01:41Z</time>
      </trkpt>
      <trkpt lat="45.9842" lon="3.55063">
        <ele>427</ele>
        <time>2025-10-05T15:01:52Z</time>
      </trkpt>
      <trkpt lat="45.98479" lon="3.55033">
        <ele>448</ele>
        <time>2025-10-05T15:02:24Z</time>
      </trkpt>
      <trkpt lat="45.98532" lon="3.55004">
        <ele>466</ele>
        <time>2025-10-05T15:02:52Z</time>
      </trkpt>
      <trkpt lat="45.98527" lon="3.54995">
        <ele>465</ele>
        <time>2025-10-05T15:02:56Z</time>
      </trkpt>
      <trkpt lat="45.98513" lon="3.54977">
        <ele>460</ele>
        <time>2025-10-05T15:03:05Z</time>
      </trkpt>
      <trkpt lat="45.98508" lon="3.54963">
        <ele>458</ele>
        <time>2025-10-05T15:03:11Z</time>
      </trkpt>
      <trkpt lat="45.98506" lon="3.54946">
        <ele>457</ele>
        <time>2025-10-05T15:03:17Z</time>
      </trkpt>
      <trkpt lat="45.9851" lon="3.54902">
        <ele>455</ele>
        <time>2025-10-05T15:03:32Z</time>
      </trkpt>
      <trkpt lat="45.98516" lon="3.54874">
        <ele>452</ele>
        <time>2025-10-05T15:03:43Z</time>
      </trkpt>
      <trkpt lat="45.98525" lon="3.54857">
        <ele>452</ele>
        <time>2025-10-05T15:03:50Z</time>
      </trkpt>
      <trkpt lat="45.98542" lon="3.54836">
        <ele>453</ele>
        <time>2025-10-05T15:04:01Z</time>
      </trkpt>
      <trkpt lat="45.98563" lon="3.54814">
        <ele>453</ele>
        <time>2025-10-05T15:04:14Z</time>
      </trkpt>
      <trkpt lat="45.98575" lon="3.54797">
        <ele>452</ele>
        <time>2025-10-05T15:04:23Z</time>
      </trkpt>
      <trkpt lat="45.98586" lon="3.5478">
        <ele>451</ele>
        <time>2025-10-05T15:04:31Z</time>
      </trkpt>
      <trkpt lat="45.986" lon="3.54766">
        <ele>450</ele>
        <time>2025-10-05T15:04:39Z</time>
      </trkpt>
      <trkpt lat="45.9862" lon="3.54757">
        <ele>453</ele>
        <time>2025-10-05T15:04:50Z</time>
      </trkpt>
      <trkpt lat="45.98645" lon="3.54739">
        <ele>453</ele>
        <time>2025-10-05T15:05:04Z</time>
      </trkpt>
      <trkpt lat="45.98655" lon="3.54737">
        <ele>455</ele>
        <time>2025-10-05T15:05:09Z</time>
      </trkpt>
      <trkpt lat="45.98664" lon="3.54743">
        <ele>460</ele>
        <time>2025-10-05T15:05:14Z</time>
      </trkpt>
      <trkpt lat="45.98673" lon="3.54754">
        <ele>465</ele>
        <time>2025-10-05T15:05:20Z</time>
      </trkpt>
      <trkpt lat="45.98687" lon="3.5476">
        <ele>467</ele>
        <time>2025-10-05T15:05:27Z</time>
      </trkpt>
      <trkpt lat="45.98692" lon="3.54752">
        <ele>466</ele>
        <time>2025-10-05T15:05:31Z</time>
      </trkpt>
      <trkpt lat="45.98713" lon="3.5472">
        <ele>459</ele>
        <time>2025-10-05T15:05:46Z</time>
      </trkpt>
      <trkpt lat="45.98735" lon="3.54701">
        <ele>457</ele>
        <time>2025-10-05T15:05:59Z</time>
      </trkpt>
      <trkpt lat="45.98764" lon="3.54686">
        <ele>457</ele>
        <time>2025-10-05T15:06:14Z</time>
      </trkpt>
      <trkpt lat="45.98787" lon="3.54679">
        <ele>457</ele>
        <time>2025-10-05T15:06:26Z</time>
      </trkpt>
      <trkpt lat="45.98801" lon="3.54673">
        <ele>457</ele>
        <time>2025-10-05T15:06:33Z</time>
      </trkpt>
      <trkpt lat="45.9881" lon="3.54649">
        <ele>452</ele>
        <time>2025-10-05T15:06:43Z</time>
      </trkpt>
      <trkpt lat="45.98807" lon="3.54635">
        <ele>449</ele>
        <time>2025-10-05T15:06:48Z</time>
      </trkpt>
      <trkpt lat="45.98792" lon="3.54611">
        <ele>442</ele>
        <time>2025-10-05T15:06:59Z</time>
      </trkpt>
      <trkpt lat="45.98783" lon="3.54591">
        <ele>435</ele>
        <time>2025-10-05T15:07:07Z</time>
      </trkpt>
      <trkpt lat="45.98778" lon="3.54581">
        <ele>432</ele>
        <time>2025-10-05T15:07:12Z</time>
      </trkpt>
      <trkpt lat="45.98767" lon="3.54577">
        <ele>430</ele>
        <time>2025-10-05T15:07:17Z</time>
      </trkpt>
      <trkpt lat="45.98759" lon="3.54571">
        <ele>428</ele>
        <time>2025-10-05T15:07:22Z</time>
      </trkpt>
      <trkpt lat="45.98753" lon="3.54555">
        <ele>425</ele>
        <time>2025-10-05T15:07:28Z</time>
      </trkpt>
      <trkpt lat="45.98754" lon="3.54544">
        <ele>424</ele>
        <time>2025-10-05T15:07:32Z</time>
      </trkpt>
      <trkpt lat="45.98763" lon="3.54519">
        <ele>423</ele>
        <time>2025-10-05T15:07:42Z</time>
      </trkpt>
      <trkpt lat="45.98759" lon="3.54488">
        <ele>421</ele>
        <time>2025-10-05T15:07:53Z</time>
      </trkpt>
      <trkpt lat="45.98744" lon="3.54469">
        <ele>416</ele>
        <time>2025-10-05T15:08:03Z</time>
      </trkpt>
      <trkpt lat="45.98742" lon="3.54436">
        <ele>416</ele>
        <time>2025-10-05T15:08:14Z</time>
      </trkpt>
      <trkpt lat="45.98759" lon="3.54392">
        <ele>423</ele>
        <time>2025-10-05T15:08:32Z</time>
      </trkpt>
      <trkpt lat="45.98773" lon="3.54363">
        <ele>430</ele>
        <time>2025-10-05T15:08:44Z</time>
      </trkpt>
      <trkpt lat="45.98772" lon="3.5432">
        <ele>428</ele>
        <time>2025-10-05T15:08:59Z</time>
      </trkpt>
      <trkpt lat="45.98766" lon="3.54299">
        <ele>422</ele>
        <time>2025-10-05T15:09:07Z</time>
      </trkpt>
      <trkpt lat="45.98765" lon="3.54297">
        <ele>421</ele>
        <time>2025-10-05T15:09:08Z</time>
      </trkpt>
      <trkpt lat="45.98772" lon="3.54259">
        <ele>420</ele>
        <time>2025-10-05T15:09:21Z</time>
      </trkpt>
      <trkpt lat="45.98785" lon="3.54243">
        <ele>422</ele>
        <time>2025-10-05T15:09:30Z</time>
      </trkpt>
      <trkpt lat="45.98802" lon="3.54235">
        <ele>426</ele>
        <time>2025-10-05T15:09:39Z</time>
      </trkpt>
      <trkpt lat="45.98825" lon="3.54203">
        <ele>424</ele>
        <time>2025-10-05T15:09:55Z</time>
      </trkpt>
      <trkpt lat="45.9884" lon="3.54203">
        <ele>429</ele>
        <time>2025-10-05T15:10:03Z</time>
      </trkpt>
      <trkpt lat="45.98854" lon="3.54182">
        <ele>423</ele>
        <time>2025-10-05T15:10:13Z</time>
      </trkpt>
      <trkpt lat="45.9887" lon="3.54169">
        <ele>422</ele>
        <time>2025-10-05T15:10:22Z</time>
      </trkpt>
      <trkpt lat="45.98901" lon="3.54144">
        <ele>419</ele>
        <time>2025-10-05T15:10:40Z</time>
      </trkpt>
      <trkpt lat="45.98916" lon="3.54144">
        <ele>423</ele>
        <time>2025-10-05T15:10:47Z</time>
      </trkpt>
      <trkpt lat="45.98926" lon="3.54154">
        <ele>422</ele>
        <time>2025-10-05T15:10:53Z</time>
      </trkpt>
      <trkpt lat="45.98932" lon="3.54171">
        <ele>425</ele>
        <time>2025-10-05T15:11:00Z</time>
      </trkpt>
      <trkpt lat="45.98949" lon="3.5423">
        <ele>434</ele>
        <time>2025-10-05T15:11:22Z</time>
      </trkpt>
      <trkpt lat="45.98975" lon="3.5432">
        <ele>449</ele>
        <time>2025-10-05T15:11:56Z</time>
      </trkpt>
      <trkpt lat="45.98983" lon="3.54331">
        <ele>450</ele>
        <time>2025-10-05T15:12:01Z</time>
      </trkpt>
      <trkpt lat="45.98998" lon="3.54339">
        <ele>447</ele>
        <time>2025-10-05T15:12:09Z</time>
      </trkpt>
      <trkpt lat="45.99017" lon="3.54359">
        <ele>445</ele>
        <time>2025-10-05T15:12:21Z</time>
      </trkpt>
      <trkpt lat="45.99033" lon="3.54395">
        <ele>449</ele>
        <time>2025-10-05T15:12:36Z</time>
      </trkpt>
      <trkpt lat="45.9904" lon="3.54423">
        <ele>455</ele>
        <time>2025-10-05T15:12:46Z</time>
      </trkpt>
      <trkpt lat="45.99052" lon="3.5443">
        <ele>452</ele>
        <time>2025-10-05T15:12:53Z</time>
      </trkpt>
      <trkpt lat="45.99079" lon="3.54438">
        <ele>445</ele>
        <time>2025-10-05T15:13:07Z</time>
      </trkpt>
      <trkpt lat="45.99094" lon="3.54454">
        <ele>444</ele>
        <time>2025-10-05T15:13:16Z</time>
      </trkpt>
      <trkpt lat="45.99124" lon="3.54517">
        <ele>450</ele>
        <time>2025-10-05T15:13:43Z</time>
      </trkpt>
      <trkpt lat="45.99126" lon="3.54529">
        <ele>452</ele>
        <time>2025-10-05T15:13:47Z</time>
      </trkpt>
      <trkpt lat="45.99123" lon="3.54558">
        <ele>457</ele>
        <time>2025-10-05T15:13:57Z</time>
      </trkpt>
      <trkpt lat="45.9914" lon="3.54563">
        <ele>453</ele>
        <time>2025-10-05T15:14:06Z</time>
      </trkpt>
      <trkpt lat="45.99157" lon="3.54555">
        <ele>447</ele>
        <time>2025-10-05T15:14:15Z</time>
      </trkpt>
      <trkpt lat="45.99166" lon="3.54544">
        <ele>443</ele>
        <time>2025-10-05T15:14:21Z</time>
      </trkpt>
      <trkpt lat="45.99169" lon="3.54523">
        <ele>438</ele>
        <time>2025-10-05T15:14:28Z</time>
      </trkpt>
      <trkpt lat="45.99156" lon="3.54496">
        <ele>436</ele>
        <time>2025-10-05T15:14:40Z</time>
      </trkpt>
      <trkpt lat="45.99142" lon="3.54476">
        <ele>434</ele>
        <time>2025-10-05T15:14:49Z</time>
      </trkpt>
      <trkpt lat="45.99134" lon="3.54447">
        <ele>428</ele>
        <time>2025-10-05T15:15:00Z</time>
      </trkpt>
      <trkpt lat="45.99106" lon="3.54388">
        <ele>419</ele>
        <time>2025-10-05T15:15:25Z</time>
      </trkpt>
      <trkpt lat="45.99099" lon="3.54372">
        <ele>416</ele>
        <time>2025-10-05T15:15:32Z</time>
      </trkpt>
      <trkpt lat="45.99078" lon="3.54356">
        <ele>417</ele>
        <time>2025-10-05T15:15:44Z</time>
      </trkpt>
      <trkpt lat="45.99071" lon="3.54318">
        <ele>408</ele>
        <time>2025-10-05T15:15:57Z</time>
      </trkpt>
      <trkpt lat="45.99033" lon="3.54258">
        <ele>408</ele>
        <time>2025-10-05T15:16:25Z</time>
      </trkpt>
      <trkpt lat="45.99014" lon="3.54206">
        <ele>403</ele>
        <time>2025-10-05T15:16:46Z</time>
      </trkpt>
      <trkpt lat="45.98996" lon="3.54119">
        <ele>391</ele>
        <time>2025-10-05T15:17:17Z</time>
      </trkpt>
      <trkpt lat="45.98986" lon="3.54009">
        <ele>375</ele>
        <time>2025-10-05T15:17:56Z</time>
      </trkpt>
      <trkpt lat="45.98981" lon="3.53985">
        <ele>372</ele>
        <time>2025-10-05T15:18:05Z</time>
      </trkpt>
      <trkpt lat="45.98973" lon="3.53972">
        <ele>371</ele>
        <time>2025-10-05T15:18:11Z</time>
      </trkpt>
      <trkpt lat="45.98967" lon="3.5396">
        <ele>370</ele>
        <time>2025-10-05T15:18:16Z</time>
      </trkpt>
      <trkpt lat="45.9896" lon="3.53967">
        <ele>370</ele>
        <time>2025-10-05T15:18:20Z</time>
      </trkpt>
      <trkpt lat="45.98967" lon="3.5396">
        <ele>370</ele>
        <time>2025-10-05T15:18:24Z</time>
      </trkpt>
      <trkpt lat="45.98977" lon="3.53942">
        <ele>369</ele>
        <time>2025-10-05T15:18:32Z</time>
      </trkpt>
      <trkpt lat="45.98982" lon="3.53929">
        <ele>368</ele>
        <time>2025-10-05T15:18:38Z</time>
      </trkpt>
      <trkpt lat="45.98986" lon="3.5392">
        <ele>367</ele>
        <time>2025-10-05T15:18:41Z</time>
      </trkpt>
      <trkpt lat="45.98996" lon="3.53884">
        <ele>368</ele>
        <time>2025-10-05T15:18:55Z</time>
      </trkpt>
      <trkpt lat="45.98999" lon="3.53849">
        <ele>369</ele>
        <time>2025-10-05T15:19:07Z</time>
      </trkpt>
      <trkpt lat="45.98999" lon="3.53808">
        <ele>372</ele>
        <time>2025-10-05T15:19:21Z</time>
      </trkpt>
      <trkpt lat="45.99003" lon="3.53815">
        <ele>372</ele>
        <time>2025-10-05T15:19:24Z</time>
      </trkpt>
      <trkpt lat="45.99019" lon="3.53843">
        <ele>376</ele>
        <time>2025-10-05T15:19:37Z</time>
      </trkpt>
      <trkpt lat="45.99029" lon="3.53865">
        <ele>379</ele>
        <time>2025-10-05T15:19:46Z</time>
      </trkpt>
      <trkpt lat="45.99032" lon="3.53875">
        <ele>380</ele>
        <time>2025-10-05T15:19:50Z</time>
      </trkpt>
      <trkpt lat="45.99149" lon="3.53868">
        <ele>423</ele>
        <time>2025-10-05T15:20:49Z</time>
      </trkpt>
      <trkpt lat="45.99219" lon="3.53871">
        <ele>451</ele>
        <time>2025-10-05T15:21:24Z</time>
      </trkpt>
      <trkpt lat="45.99228" lon="3.53896">
        <ele>453</ele>
        <time>2025-10-05T15:21:33Z</time>
      </trkpt>
      <trkpt lat="45.99226" lon="3.53922">
        <ele>451</ele>
        <time>2025-10-05T15:21:43Z</time>
      </trkpt>
      <trkpt lat="45.99233" lon="3.53933">
        <ele>455</ele>
        <time>2025-10-05T15:21:48Z</time>
      </trkpt>
      <trkpt lat="45.99246" lon="3.53888">
        <ele>460</ele>
        <time>2025-10-05T15:22:05Z</time>
      </trkpt>
      <trkpt lat="45.99257" lon="3.53869">
        <ele>466</ele>
        <time>2025-10-05T15:22:13Z</time>
      </trkpt>
      <trkpt lat="45.9927" lon="3.53886">
        <ele>470</ele>
        <time>2025-10-05T15:22:22Z</time>
      </trkpt>
      <trkpt lat="45.99279" lon="3.53832">
        <ele>477</ele>
        <time>2025-10-05T15:22:41Z</time>
      </trkpt>
      <trkpt lat="45.99277" lon="3.53756">
        <ele>476</ele>
        <time>2025-10-05T15:23:08Z</time>
      </trkpt>
      <trkpt lat="45.99268" lon="3.53751">
        <ele>475</ele>
        <time>2025-10-05T15:23:13Z</time>
      </trkpt>
      <trkpt lat="45.99258" lon="3.53734">
        <ele>472</ele>
        <time>2025-10-05T15:23:20Z</time>
      </trkpt>
      <trkpt lat="45.99246" lon="3.53708">
        <ele>467</ele>
        <time>2025-10-05T15:23:31Z</time>
      </trkpt>
      <trkpt lat="45.99237" lon="3.53671">
        <ele>461</ele>
        <time>2025-10-05T15:23:45Z</time>
      </trkpt>
      <trkpt lat="45.9923" lon="3.53648">
        <ele>457</ele>
        <time>2025-10-05T15:23:54Z</time>
      </trkpt>
      <trkpt lat="45.99221" lon="3.53635">
        <ele>454</ele>
        <time>2025-10-05T15:24:00Z</time>
      </trkpt>
      <trkpt lat="45.99209" lon="3.53622">
        <ele>452</ele>
        <time>2025-10-05T15:24:07Z</time>
      </trkpt>
      <trkpt lat="45.9919" lon="3.53619">
        <ele>451</ele>
        <time>2025-10-05T15:24:17Z</time>
      </trkpt>
      <trkpt lat="45.99155" lon="3.53617">
        <ele>447</ele>
        <time>2025-10-05T15:24:35Z</time>
      </trkpt>
      <trkpt lat="45.9913" lon="3.53614">
        <ele>443</ele>
        <time>2025-10-05T15:24:47Z</time>
      </trkpt>
      <trkpt lat="45.99078" lon="3.53593">
        <ele>434</ele>
        <time>2025-10-05T15:25:14Z</time>
      </trkpt>
      <trkpt lat="45.99058" lon="3.53584">
        <ele>428</ele>
        <time>2025-10-05T15:25:25Z</time>
      </trkpt>
      <trkpt lat="45.99036" lon="3.53582">
        <ele>422</ele>
        <time>2025-10-05T15:25:36Z</time>
      </trkpt>
      <trkpt lat="45.9901" lon="3.53587">
        <ele>414</ele>
        <time>2025-10-05T15:25:49Z</time>
      </trkpt>
      <trkpt lat="45.98996" lon="3.53578">
        <ele>408</ele>
        <time>2025-10-05T15:25:56Z</time>
      </trkpt>
      <trkpt lat="45.98975" lon="3.53561">
        <ele>397</ele>
        <time>2025-10-05T15:26:09Z</time>
      </trkpt>
      <trkpt lat="45.98949" lon="3.53536">
        <ele>384</ele>
        <time>2025-10-05T15:26:24Z</time>
      </trkpt>
      <trkpt lat="45.98943" lon="3.53532">
        <ele>382</ele>
        <time>2025-10-05T15:26:28Z</time>
      </trkpt>
      <trkpt lat="45.98952" lon="3.53501">
        <ele>381</ele>
        <time>2025-10-05T15:26:39Z</time>
      </trkpt>
      <trkpt lat="45.98942" lon="3.53488">
        <ele>378</ele>
        <time>2025-10-05T15:26:46Z</time>
      </trkpt>
      <trkpt lat="45.9893" lon="3.5349">
        <ele>375</ele>
        <time>2025-10-05T15:26:52Z</time>
      </trkpt>
      <trkpt lat="45.98933" lon="3.53467">
        <ele>374</ele>
        <time>2025-10-05T15:27:00Z</time>
      </trkpt>
      <trkpt lat="45.98916" lon="3.53463">
        <ele>371</ele>
        <time>2025-10-05T15:27:09Z</time>
      </trkpt>
      <trkpt lat="45.989" lon="3.53467">
        <ele>369</ele>
        <time>2025-10-05T15:27:17Z</time>
      </trkpt>
      <trkpt lat="45.98886" lon="3.53479">
        <ele>367</ele>
        <time>2025-10-05T15:27:25Z</time>
      </trkpt>
      <trkpt lat="45.98876" lon="3.53482">
        <ele>365</ele>
        <time>2025-10-05T15:27:30Z</time>
      </trkpt>
      <trkpt lat="45.98866" lon="3.53482">
        <ele>364</ele>
        <time>2025-10-05T15:27:35Z</time>
      </trkpt>
      <trkpt lat="45.9886" lon="3.53481">
        <ele>363</ele>
        <time>2025-10-05T15:27:38Z</time>
      </trkpt>
      <trkpt lat="45.98919" lon="3.53357">
        <ele>375</ele>
        <time>2025-10-05T15:28:30Z</time>
      </trkpt>
      <trkpt lat="45.98986" lon="3.53237">
        <ele>413</ele>
        <time>2025-10-05T15:29:24Z</time>
      </trkpt>
      <trkpt lat="45.99033" lon="3.53136">
        <ele>434</ele>
        <time>2025-10-05T15:30:06Z</time>
      </trkpt>
      <trkpt lat="45.99033" lon="3.53128">
        <ele>435</ele>
        <time>2025-10-05T15:30:09Z</time>
      </trkpt>
      <trkpt lat="45.9903" lon="3.53095">
        <ele>439</ele>
        <time>2025-10-05T15:30:21Z</time>
      </trkpt>
      <trkpt lat="45.99032" lon="3.53061">
        <ele>445</ele>
        <time>2025-10-05T15:30:32Z</time>
      </trkpt>
      <trkpt lat="45.99031" lon="3.53025">
        <ele>453</ele>
        <time>2025-10-05T15:30:45Z</time>
      </trkpt>
      <trkpt lat="45.99034" lon="3.53007">
        <ele>458</ele>
        <time>2025-10-05T15:30:51Z</time>
      </trkpt>
      <trkpt lat="45.98997" lon="3.52961">
        <ele>462</ele>
        <time>2025-10-05T15:31:16Z</time>
      </trkpt>
      <trkpt lat="45.9899" lon="3.5295">
        <ele>460</ele>
        <time>2025-10-05T15:31:21Z</time>
      </trkpt>
      <trkpt lat="45.98991" lon="3.52941">
        <ele>462</ele>
        <time>2025-10-05T15:31:24Z</time>
      </trkpt>
      <trkpt lat="45.98994" lon="3.52909">
        <ele>467</ele>
        <time>2025-10-05T15:31:35Z</time>
      </trkpt>
      <trkpt lat="45.99" lon="3.52883">
        <ele>473</ele>
        <time>2025-10-05T15:31:45Z</time>
      </trkpt>
      <trkpt lat="45.99004" lon="3.52862">
        <ele>476</ele>
        <time>2025-10-05T15:31:53Z</time>
      </trkpt>
      <trkpt lat="45.98993" lon="3.52788">
        <ele>484</ele>
        <time>2025-10-05T15:32:19Z</time>
      </trkpt>
      <trkpt lat="45.98989" lon="3.52761">
        <ele>488</ele>
        <time>2025-10-05T15:32:28Z</time>
      </trkpt>
      <trkpt lat="45.98995" lon="3.52713">
        <ele>498</ele>
        <time>2025-10-05T15:32:45Z</time>
      </trkpt>
      <trkpt lat="45.98994" lon="3.52705">
        <ele>499</ele>
        <time>2025-10-05T15:32:48Z</time>
      </trkpt>
      <trkpt lat="45.98982" lon="3.5269">
        <ele>499</ele>
        <time>2025-10-05T15:32:56Z</time>
      </trkpt>
      <trkpt lat="45.98962" lon="3.52687">
        <ele>496</ele>
        <time>2025-10-05T15:33:06Z</time>
      </trkpt>
      <trkpt lat="45.9895" lon="3.52688">
        <ele>493</ele>
        <time>2025-10-05T15:33:12Z</time>
      </trkpt>
      <trkpt lat="45.98941" lon="3.52689">
        <ele>491</ele>
        <time>2025-10-05T15:33:17Z</time>
      </trkpt>
      <trkpt lat="45.98893" lon="3.52685">
        <ele>482</ele>
        <time>2025-10-05T15:33:41Z</time>
      </trkpt>
      <trkpt lat="45.98865" lon="3.52659">
        <ele>481</ele>
        <time>2025-10-05T15:33:57Z</time>
      </trkpt>
      <trkpt lat="45.9885" lon="3.5263">
        <ele>484</ele>
        <time>2025-10-05T15:34:10Z</time>
      </trkpt>
      <trkpt lat="45.98841" lon="3.52602">
        <ele>489</ele>
        <time>2025-10-05T15:34:21Z</time>
      </trkpt>
      <trkpt lat="45.98834" lon="3.52592">
        <ele>489</ele>
        <time>2025-10-05T15:34:26Z</time>
      </trkpt>
      <trkpt lat="45.98832" lon="3.52588">
        <ele>490</ele>
        <time>2025-10-05T15:34:27Z</time>
      </trkpt>
      <trkpt lat="45.98825" lon="3.52564">
        <ele>494</ele>
        <time>2025-10-05T15:34:36Z</time>
      </trkpt>
      <trkpt lat="45.9882" lon="3.52548">
        <ele>498</ele>
        <time>2025-10-05T15:34:43Z</time>
      </trkpt>
      <trkpt lat="45.98805" lon="3.52533">
        <ele>499</ele>
        <time>2025-10-05T15:34:52Z</time>
      </trkpt>
      <trkpt lat="45.98761" lon="3.52515">
        <ele>496</ele>
        <time>2025-10-05T15:35:15Z</time>
      </trkpt>
      <trkpt lat="45.98739" lon="3.52491">
        <ele>500</ele>
        <time>2025-10-05T15:35:28Z</time>
      </trkpt>
      <trkpt lat="45.98685" lon="3.52446">
        <ele>500</ele>
        <time>2025-10-05T15:36:00Z</time>
      </trkpt>
      <trkpt lat="45.98683" lon="3.52435">
        <ele>501</ele>
        <time>2025-10-05T15:36:04Z</time>
      </trkpt>
      <trkpt lat="45.98668" lon="3.52364">
        <ele>496</ele>
        <time>2025-10-05T15:36:29Z</time>
      </trkpt>
      <trkpt lat="45.98668" lon="3.5232">
        <ele>494</ele>
        <time>2025-10-05T15:36:45Z</time>
      </trkpt>
      <trkpt lat="45.98669" lon="3.52317">
        <ele>494</ele>
        <time>2025-10-05T15:36:46Z</time>
      </trkpt>
      <trkpt lat="45.98654" lon="3.52371">
        <ele>493</ele>
        <time>2025-10-05T15:37:06Z</time>
      </trkpt>
      <trkpt lat="45.98623" lon="3.52352">
        <ele>484</ele>
        <time>2025-10-05T15:37:23Z</time>
      </trkpt>
      <trkpt lat="45.98627" lon="3.52318">
        <ele>482</ele>
        <time>2025-10-05T15:37:35Z</time>
      </trkpt>
      <trkpt lat="45.9861" lon="3.52298">
        <ele>474</ele>
        <time>2025-10-05T15:37:46Z</time>
      </trkpt>
      <trkpt lat="45.98615" lon="3.52257">
        <ele>470</ele>
        <time>2025-10-05T15:38:00Z</time>
      </trkpt>
      <trkpt lat="45.98587" lon="3.52239">
        <ele>458</ele>
        <time>2025-10-05T15:38:16Z</time>
      </trkpt>
      <trkpt lat="45.98562" lon="3.52232">
        <ele>451</ele>
        <time>2025-10-05T15:38:29Z</time>
      </trkpt>
      <trkpt lat="45.98528" lon="3.5223">
        <ele>443</ele>
        <time>2025-10-05T15:38:46Z</time>
      </trkpt>
      <trkpt lat="45.98512" lon="3.5221">
        <ele>436</ele>
        <time>2025-10-05T15:38:56Z</time>
      </trkpt>
      <trkpt lat="45.98493" lon="3.52172">
        <ele>426</ele>
        <time>2025-10-05T15:39:12Z</time>
      </trkpt>
      <trkpt lat="45.98473" lon="3.52143">
        <ele>420</ele>
        <time>2025-10-05T15:39:27Z</time>
      </trkpt>
      <trkpt lat="45.98461" lon="3.52119">
        <ele>415</ele>
        <time>2025-10-05T15:39:37Z</time>
      </trkpt>
      <trkpt lat="45.98445" lon="3.52108">
        <ele>410</ele>
        <time>2025-10-05T15:39:46Z</time>
      </trkpt>
      <trkpt lat="45.98412" lon="3.52075">
        <ele>399</ele>
        <time>2025-10-05T15:40:06Z</time>
      </trkpt>
      <trkpt lat="45.98393" lon="3.52057">
        <ele>397</ele>
        <time>2025-10-05T15:40:17Z</time>
      </trkpt>
      <trkpt lat="45.98384" lon="3.5206">
        <ele>396</ele>
        <time>2025-10-05T15:40:22Z</time>
      </trkpt>
      <trkpt lat="45.9838" lon="3.52049">
        <ele>394</ele>
        <time>2025-10-05T15:40:26Z</time>
      </trkpt>
      <trkpt lat="45.98354" lon="3.51989">
        <ele>386</ele>
        <time>2025-10-05T15:40:51Z</time>
      </trkpt>
      <trkpt lat="45.98323" lon="3.51983">
        <ele>380</ele>
        <time>2025-10-05T15:41:06Z</time>
      </trkpt>
      <trkpt lat="45.98318" lon="3.51972">
        <ele>379</ele>
        <time>2025-10-05T15:41:11Z</time>
      </trkpt>
      <trkpt lat="45.98313" lon="3.51963">
        <ele>378</ele>
        <time>2025-10-05T15:41:15Z</time>
      </trkpt>
      <trkpt lat="45.98266" lon="3.5193">
        <ele>366</ele>
        <time>2025-10-05T15:41:41Z</time>
      </trkpt>
      <trkpt lat="45.98253" lon="3.51917">
        <ele>361</ele>
        <time>2025-10-05T15:41:49Z</time>
      </trkpt>
      <trkpt lat="45.9824" lon="3.51903">
        <ele>358</ele>
        <time>2025-10-05T15:41:57Z</time>
      </trkpt>
      <trkpt lat="45.98223" lon="3.51884">
        <ele>354</ele>
        <time>2025-10-05T15:42:08Z</time>
      </trkpt>
      <trkpt lat="45.98216" lon="3.51872">
        <ele>352</ele>
        <time>2025-10-05T15:42:13Z</time>
      </trkpt>
      <trkpt lat="45.98211" lon="3.51855">
        <ele>350</ele>
        <time>2025-10-05T15:42:20Z</time>
      </trkpt>
      <trkpt lat="45.98207" lon="3.5183">
        <ele>347</ele>
        <time>2025-10-05T15:42:29Z</time>
      </trkpt>
      <trkpt lat="45.98205" lon="3.5181">
        <ele>346</ele>
        <time>2025-10-05T15:42:36Z</time>
      </trkpt>
      <trkpt lat="45.982" lon="3.51802">
        <ele>344</ele>
        <time>2025-10-05T15:42:40Z</time>
      </trkpt>
      <trkpt lat="45.98178" lon="3.51797">
        <ele>338</ele>
        <time>2025-10-05T15:42:51Z</time>
      </trkpt>
      <trkpt lat="45.98171" lon="3.51792">
        <ele>336</ele>
        <time>2025-10-05T15:42:55Z</time>
      </trkpt>
      <trkpt lat="45.98114" lon="3.51712">
        <ele>323</ele>
        <time>2025-10-05T15:43:34Z</time>
      </trkpt>
      <trkpt lat="45.98115" lon="3.5171">
        <ele>323</ele>
        <time>2025-10-05T15:43:35Z</time>
      </trkpt>
      <trkpt lat="45.98107" lon="3.51697">
        <ele>322</ele>
        <time>2025-10-05T15:43:41Z</time>
      </trkpt>
      <trkpt lat="45.98125" lon="3.51653">
        <ele>321</ele>
        <time>2025-10-05T15:43:59Z</time>
      </trkpt>
      <trkpt lat="45.98127" lon="3.51651">
        <ele>321</ele>
        <time>2025-10-05T15:44:00Z</time>
      </trkpt>
      <trkpt lat="45.98155" lon="3.51604">
        <ele>322</ele>
        <time>2025-10-05T15:44:22Z</time>
      </trkpt>
      <trkpt lat="45.98163" lon="3.5158">
        <ele>321</ele>
        <time>2025-10-05T15:44:31Z</time>
      </trkpt>
      <trkpt lat="45.9817" lon="3.51567">
        <ele>321</ele>
        <time>2025-10-05T15:44:37Z</time>
      </trkpt>
      <trkpt lat="45.98193" lon="3.51548">
        <ele>323</ele>
        <time>2025-10-05T15:44:50Z</time>
      </trkpt>
      <trkpt lat="45.98203" lon="3.51534">
        <ele>324</ele>
        <time>2025-10-05T15:44:57Z</time>
      </trkpt>
      <trkpt lat="45.98207" lon="3.51523">
        <ele>324</ele>
        <time>2025-10-05T15:45:01Z</time>
      </trkpt>
      <trkpt lat="45.98203" lon="3.51513">
        <ele>322</ele>
        <time>2025-10-05T15:45:05Z</time>
      </trkpt>
      <trkpt lat="45.98198" lon="3.51504">
        <ele>320</ele>
        <time>2025-10-05T15:45:09Z</time>
      </trkpt>
      <trkpt lat="45.98189" lon="3.5149">
        <ele>317</ele>
        <time>2025-10-05T15:45:16Z</time>
      </trkpt>
      <trkpt lat="45.98177" lon="3.51478">
        <ele>314</ele>
        <time>2025-10-05T15:45:23Z</time>
      </trkpt>
      <trkpt lat="45.98147" lon="3.51433">
        <ele>308</ele>
        <time>2025-10-05T15:45:45Z</time>
      </trkpt>
      <trkpt lat="45.9816" lon="3.51413">
        <ele>308</ele>
        <time>2025-10-05T15:45:55Z</time>
      </trkpt>
      <trkpt lat="45.98216" lon="3.51265">
        <ele>306</ele>
        <time>2025-10-05T15:46:53Z</time>
      </trkpt>
      <trkpt lat="45.98229" lon="3.5121">
        <ele>304</ele>
        <time>2025-10-05T15:47:13Z</time>
      </trkpt>
      <trkpt lat="45.98234" lon="3.51196">
        <ele>303</ele>
        <time>2025-10-05T15:47:19Z</time>
      </trkpt>
      <trkpt lat="45.98273" lon="3.51175">
        <ele>305</ele>
        <time>2025-10-05T15:47:40Z</time>
      </trkpt>
      <trkpt lat="45.98282" lon="3.51157">
        <ele>305</ele>
        <time>2025-10-05T15:47:47Z</time>
      </trkpt>
      <trkpt lat="45.98307" lon="3.51132">
        <ele>306</ele>
        <time>2025-10-05T15:48:03Z</time>
      </trkpt>
      <trkpt lat="45.98343" lon="3.51091">
        <ele>303</ele>
        <time>2025-10-05T15:48:26Z</time>
      </trkpt>
      <trkpt lat="45.98355" lon="3.51048">
        <ele>302</ele>
        <time>2025-10-05T15:48:42Z</time>
      </trkpt>
      <trkpt lat="45.98362" lon="3.51029">
        <ele>302</ele>
        <time>2025-10-05T15:48:49Z</time>
      </trkpt>
      <trkpt lat="45.98376" lon="3.51026">
        <ele>303</ele>
        <time>2025-10-05T15:48:56Z</time>
      </trkpt>
      <trkpt lat="45.98404" lon="3.50988">
        <ele>304</ele>
        <time>2025-10-05T15:49:16Z</time>
      </trkpt>
      <trkpt lat="45.98395" lon="3.50967">
        <ele>303</ele>
        <time>2025-10-05T15:49:24Z</time>
      </trkpt>
      <trkpt lat="45.98386" lon="3.50941">
        <ele>302</ele>
        <time>2025-10-05T15:49:34Z</time>
      </trkpt>
      <trkpt lat="45.98378" lon="3.50933">
        <ele>301</ele>
        <time>2025-10-05T15:49:39Z</time>
      </trkpt>
      <trkpt lat="45.98373" lon="3.50932">
        <ele>301</ele>
        <time>2025-10-05T15:49:42Z</time>
      </trkpt>
      <trkpt lat="45.98362" lon="3.50933">
        <ele>300</ele>
        <time>2025-10-05T15:49:47Z</time>
      </trkpt>
      <trkpt lat="45.98301" lon="3.50981">
        <ele>300</ele>
        <time>2025-10-05T15:50:22Z</time>
      </trkpt>
      <trkpt lat="45.98294" lon="3.50981">
        <ele>300</ele>
        <time>2025-10-05T15:50:25Z</time>
      </trkpt>
      <trkpt lat="45.98288" lon="3.50974">
        <ele>300</ele>
        <time>2025-10-05T15:50:29Z</time>
      </trkpt>
      <trkpt lat="45.98277" lon="3.50959">
        <ele>300</ele>
        <time>2025-10-05T15:50:37Z</time>
      </trkpt>
      <trkpt lat="45.98264" lon="3.50924">
        <ele>299</ele>
        <time>2025-10-05T15:50:51Z</time>
      </trkpt>
      <trkpt lat="45.98262" lon="3.50903">
        <ele>299</ele>
        <time>2025-10-05T15:50:58Z</time>
      </trkpt>
      <trkpt lat="45.98263" lon="3.50895">
        <ele>299</ele>
        <time>2025-10-05T15:51:01Z</time>
      </trkpt>
      <trkpt lat="45.98265" lon="3.50887">
        <ele>299</ele>
        <time>2025-10-05T15:51:04Z</time>
      </trkpt>
      <trkpt lat="45.98274" lon="3.50865">
        <ele>299</ele>
        <time>2025-10-05T15:51:13Z</time>
      </trkpt>
      <trkpt lat="45.98273" lon="3.50863">
        <ele>299</ele>
        <time>2025-10-05T15:51:14Z</time>
      </trkpt>
      <trkpt lat="45.9826" lon="3.50848">
        <ele>300</ele>
        <time>2025-10-05T15:51:22Z</time>
      </trkpt>
      <trkpt lat="45.98254" lon="3.50842">
        <ele>300</ele>
        <time>2025-10-05T15:51:26Z</time>
      </trkpt>
      <trkpt lat="45.9825" lon="3.50838">
        <ele>300</ele>
        <time>2025-10-05T15:51:28Z</time>
      </trkpt>
      <trkpt lat="45.98209" lon="3.51018">
        <ele>301</ele>
        <time>2025-10-05T15:52:34Z</time>
      </trkpt>
      <trkpt lat="45.9818" lon="3.51111">
        <ele>301</ele>
        <time>2025-10-05T15:53:09Z</time>
      </trkpt>
      <trkpt lat="45.98167" lon="3.51163">
        <ele>300</ele>
        <time>2025-10-05T15:53:29Z</time>
      </trkpt>
      <trkpt lat="45.98156" lon="3.51199">
        <ele>301</ele>
        <time>2025-10-05T15:53:42Z</time>
      </trkpt>
      <trkpt lat="45.98149" lon="3.51215">
        <ele>301</ele>
        <time>2025-10-05T15:53:49Z</time>
      </trkpt>
      <trkpt lat="45.98128" lon="3.51249">
        <ele>301</ele>
        <time>2025-10-05T15:54:05Z</time>
      </trkpt>
      <trkpt lat="45.98117" lon="3.51271">
        <ele>302</ele>
        <time>2025-10-05T15:54:14Z</time>
      </trkpt>
      <trkpt lat="45.9811" lon="3.51288">
        <ele>302</ele>
        <time>2025-10-05T15:54:21Z</time>
      </trkpt>
      <trkpt lat="45.98028" lon="3.51211">
        <ele>315</ele>
        <time>2025-10-05T15:55:10Z</time>
      </trkpt>
      <trkpt lat="45.9798" lon="3.51219">
        <ele>323</ele>
        <time>2025-10-05T15:55:34Z</time>
      </trkpt>
      <trkpt lat="45.97852" lon="3.51222">
        <ele>338</ele>
        <time>2025-10-05T15:56:38Z</time>
      </trkpt>
      <trkpt lat="45.97843" lon="3.51224">
        <ele>339</ele>
        <time>2025-10-05T15:56:43Z</time>
      </trkpt>
      <trkpt lat="45.97733" lon="3.51279">
        <ele>353</ele>
        <time>2025-10-05T15:57:41Z</time>
      </trkpt>
      <trkpt lat="45.97727" lon="3.51276">
        <ele>354</ele>
        <time>2025-10-05T15:57:44Z</time>
      </trkpt>
      <trkpt lat="45.97733" lon="3.51279">
        <ele>353</ele>
        <time>2025-10-05T15:57:47Z</time>
      </trkpt>
      <trkpt lat="45.97746" lon="3.51348">
        <ele>352</ele>
        <time>2025-10-05T15:58:12Z</time>
      </trkpt>
      <trkpt lat="45.97752" lon="3.51374">
        <ele>351</ele>
        <time>2025-10-05T15:58:22Z</time>
      </trkpt>
      <trkpt lat="45.97757" lon="3.5142">
        <ele>351</ele>
        <time>2025-10-05T15:58:38Z</time>
      </trkpt>
      <trkpt lat="45.97754" lon="3.51474">
        <ele>349</ele>
        <time>2025-10-05T15:58:57Z</time>
      </trkpt>
      <trkpt lat="45.9775" lon="3.51493">
        <ele>348</ele>
        <time>2025-10-05T15:59:04Z</time>
      </trkpt>
      <trkpt lat="45.97752" lon="3.51508">
        <ele>348</ele>
        <time>2025-10-05T15:59:09Z</time>
      </trkpt>
      <trkpt lat="45.97749" lon="3.51524">
        <ele>348</ele>
        <time>2025-10-05T15:59:15Z</time>
      </trkpt>
      <trkpt lat="45.97746" lon="3.51564">
        <ele>348</ele>
        <time>2025-10-05T15:59:29Z</time>
      </trkpt>
      <trkpt lat="45.9773" lon="3.51609">
        <ele>350</ele>
        <time>2025-10-05T15:59:46Z</time>
      </trkpt>
      <trkpt lat="45.97717" lon="3.5166">
        <ele>351</ele>
        <time>2025-10-05T16:00:05Z</time>
      </trkpt>
      <trkpt lat="45.97713" lon="3.51688">
        <ele>349</ele>
        <time>2025-10-05T16:00:15Z</time>
      </trkpt>
      <trkpt lat="45.97696" lon="3.51757">
        <ele>344</ele>
        <time>2025-10-05T16:00:41Z</time>
      </trkpt>
      <trkpt lat="45.97695" lon="3.51765">
        <ele>344</ele>
        <time>2025-10-05T16:00:43Z</time>
      </trkpt>
      <trkpt lat="45.97674" lon="3.51841">
        <ele>336</ele>
        <time>2025-10-05T16:01:12Z</time>
      </trkpt>
      <trkpt lat="45.97636" lon="3.51868">
        <ele>332</ele>
        <time>2025-10-05T16:01:33Z</time>
      </trkpt>
      <trkpt lat="45.97635" lon="3.51867">
        <ele>332</ele>
        <time>2025-10-05T16:01:34Z</time>
      </trkpt>
      <trkpt lat="45.97638" lon="3.51873">
        <ele>331</ele>
        <time>2025-10-05T16:01:36Z</time>
      </trkpt>
      <trkpt lat="45.97625" lon="3.51873">
        <ele>331</ele>
        <time>2025-10-05T16:01:43Z</time>
      </trkpt>
      <trkpt lat="45.97623" lon="3.51902">
        <ele>325</ele>
        <time>2025-10-05T16:01:53Z</time>
      </trkpt>
      <trkpt lat="45.97607" lon="3.51898">
        <ele>326</ele>
        <time>2025-10-05T16:02:01Z</time>
      </trkpt>
      <trkpt lat="45.97589" lon="3.51906">
        <ele>324</ele>
        <time>2025-10-05T16:02:10Z</time>
      </trkpt>
      <trkpt lat="45.97594" lon="3.51917">
        <ele>322</ele>
        <time>2025-10-05T16:02:15Z</time>
      </trkpt>
      <trkpt lat="45.97603" lon="3.51936">
        <ele>321</ele>
        <time>2025-10-05T16:02:23Z</time>
      </trkpt>
      <trkpt lat="45.97604" lon="3.51936">
        <ele>321</ele>
        <time>2025-10-05T16:02:24Z</time>
      </trkpt>
      <trkpt lat="45.97607" lon="3.51972">
        <ele>321</ele>
        <time>2025-10-05T16:02:36Z</time>
      </trkpt>
      <trkpt lat="45.97629" lon="3.51975">
        <ele>319</ele>
        <time>2025-10-05T16:02:47Z</time>
      </trkpt>
      <trkpt lat="45.97637" lon="3.51981">
        <ele>318</ele>
        <time>2025-10-05T16:02:52Z</time>
      </trkpt>
      <trkpt lat="45.97665" lon="3.52005">
        <ele>315</ele>
        <time>2025-10-05T16:03:08Z</time>
      </trkpt>
      <trkpt lat="45.97668" lon="3.52007">
        <ele>315</ele>
        <time>2025-10-05T16:03:10Z</time>
      </trkpt>
      <trkpt lat="45.97671" lon="3.52012">
        <ele>315</ele>
        <time>2025-10-05T16:03:12Z</time>
      </trkpt>
      <trkpt lat="45.97675" lon="3.52014">
        <ele>315</ele>
        <time>2025-10-05T16:03:14Z</time>
      </trkpt>
      <trkpt lat="45.97677" lon="3.52014">
        <ele>315</ele>
        <time>2025-10-05T16:03:15Z</time>
      </trkpt>
      <trkpt lat="45.9768" lon="3.52006">
        <ele>315</ele>
        <time>2025-10-05T16:03:18Z</time>
      </trkpt>
      <trkpt lat="45.97687" lon="3.51996">
        <ele>315</ele>
        <time>2025-10-05T16:03:23Z</time>
      </trkpt>
      <trkpt lat="45.97693" lon="3.52001">
        <ele>314</ele>
        <time>2025-10-05T16:03:27Z</time>
      </trkpt>
      <trkpt lat="45.97702" lon="3.52005">
        <ele>314</ele>
        <time>2025-10-05T16:03:31Z</time>
      </trkpt>
      <trkpt lat="45.97714" lon="3.52008">
        <ele>314</ele>
        <time>2025-10-05T16:03:37Z</time>
      </trkpt>
      <trkpt lat="45.97725" lon="3.52008">
        <ele>314</ele>
        <time>2025-10-05T16:03:43Z</time>
      </trkpt>
      <trkpt lat="45.97751" lon="3.5201">
        <ele>313</ele>
        <time>2025-10-05T16:03:56Z</time>
      </trkpt>
      <trkpt lat="45.97755" lon="3.52013">
        <ele>313</ele>
        <time>2025-10-05T16:03:58Z</time>
      </trkpt>
      <trkpt lat="45.97753" lon="3.52017">
        <ele>313</ele>
        <time>2025-10-05T16:04:00Z</time>
      </trkpt>
      <trkpt lat="45.97751" lon="3.5205">
        <ele>312</ele>
        <time>2025-10-05T16:04:11Z</time>
      </trkpt>
      <trkpt lat="45.97736" lon="3.52067">
        <ele>313</ele>
        <time>2025-10-05T16:04:21Z</time>
      </trkpt>
      <trkpt lat="45.97718" lon="3.5209">
        <ele>314</ele>
        <time>2025-10-05T16:04:33Z</time>
      </trkpt>
      <trkpt lat="45.97722" lon="3.52097">
        <ele>314</ele>
        <time>2025-10-05T16:04:36Z</time>
      </trkpt>
      <trkpt lat="45.97725" lon="3.52101">
        <ele>314</ele>
        <time>2025-10-05T16:04:38Z</time>
      </trkpt>
      <trkpt lat="45.97727" lon="3.52104">
        <ele>314</ele>
        <time>2025-10-05T16:04:40Z</time>
      </trkpt>
      <trkpt lat="45.97722" lon="3.52111">
        <ele>315</ele>
        <time>2025-10-05T16:04:43Z</time>
      </trkpt>
      <trkpt lat="45.97713" lon="3.52122">
        <ele>316</ele>
        <time>2025-10-05T16:04:49Z</time>
      </trkpt>
      <trkpt lat="45.97686" lon="3.52148">
        <ele>316</ele>
        <time>2025-10-05T16:05:05Z</time>
      </trkpt>
      <trkpt lat="45.9768" lon="3.52156">
        <ele>316</ele>
        <time>2025-10-05T16:05:09Z</time>
      </trkpt>
      <trkpt lat="45.97676" lon="3.52162">
        <ele>316</ele>
        <time>2025-10-05T16:05:12Z</time>
      </trkpt>
      <trkpt lat="45.97669" lon="3.52177">
        <ele>315</ele>
        <time>2025-10-05T16:05:19Z</time>
      </trkpt>
      <trkpt lat="45.97662" lon="3.52198">
        <ele>316</ele>
        <time>2025-10-05T16:05:27Z</time>
      </trkpt>
      <trkpt lat="45.97659" lon="3.52203">
        <ele>317</ele>
        <time>2025-10-05T16:05:29Z</time>
      </trkpt>
      <trkpt lat="45.97657" lon="3.522">
        <ele>317</ele>
        <time>2025-10-05T16:05:31Z</time>
      </trkpt>
      <trkpt lat="45.97646" lon="3.52197">
        <ele>319</ele>
        <time>2025-10-05T16:05:36Z</time>
      </trkpt>
      <trkpt lat="45.97642" lon="3.52198">
        <ele>319</ele>
        <time>2025-10-05T16:05:38Z</time>
      </trkpt>
      <trkpt lat="45.97641" lon="3.5218">
        <ele>319</ele>
        <time>2025-10-05T16:05:44Z</time>
      </trkpt>
      <trkpt lat="45.97638" lon="3.52166">
        <ele>320</ele>
        <time>2025-10-05T16:05:50Z</time>
      </trkpt>
      <trkpt lat="45.97636" lon="3.52157">
        <ele>321</ele>
        <time>2025-10-05T16:05:53Z</time>
      </trkpt>
    </trkseg>
  </trk>
</gpx>